地図

経路データ

SID SEASON NUMBER BASIN SUBBASIN NAME ISO_TIME NATURE LAT LON WMO_WIND WMO_PRES WMO_AGENCY TRACK_TYPE DIST2LAND LANDFALL IFLAG USA_AGENCY USA_ATCF_ID USA_LAT USA_LON USA_RECORD USA_STATUS USA_WIND USA_PRES USA_SSHS USA_R34_NE USA_R34_SE USA_R34_SW USA_R34_NW USA_R50_NE USA_R50_SE USA_R50_SW USA_R50_NW USA_R64_NE USA_R64_SE USA_R64_SW USA_R64_NW USA_POCI USA_ROCI USA_RMW USA_EYE TOKYO_LAT TOKYO_LON TOKYO_GRADE TOKYO_WIND TOKYO_PRES TOKYO_R50_DIR TOKYO_R50_LONG TOKYO_R50_SHORT TOKYO_R30_DIR TOKYO_R30_LONG TOKYO_R30_SHORT TOKYO_LAND CMA_LAT CMA_LON CMA_CAT CMA_WIND CMA_PRES HKO_LAT HKO_LON HKO_CAT HKO_WIND HKO_PRES NEWDELHI_LAT NEWDELHI_LON NEWDELHI_GRADE NEWDELHI_WIND NEWDELHI_PRES NEWDELHI_CI NEWDELHI_DP NEWDELHI_POCI REUNION_LAT REUNION_LON REUNION_TYPE REUNION_WIND REUNION_PRES REUNION_TNUM REUNION_CI REUNION_RMW REUNION_R34_NE REUNION_R34_SE REUNION_R34_SW REUNION_R34_NW REUNION_R50_NE REUNION_R50_SE REUNION_R50_SW REUNION_R50_NW REUNION_R64_NE REUNION_R64_SE REUNION_R64_SW REUNION_R64_NW BOM_LAT BOM_LON BOM_TYPE BOM_WIND BOM_PRES BOM_TNUM BOM_CI BOM_RMW BOM_R34_NE BOM_R34_SE BOM_R34_SW BOM_R34_NW BOM_R50_NE BOM_R50_SE BOM_R50_SW BOM_R50_NW BOM_R64_NE BOM_R64_SE BOM_R64_SW BOM_R64_NW BOM_ROCI BOM_POCI BOM_EYE BOM_POS_METHOD BOM_PRES_METHOD NADI_LAT NADI_LON NADI_CAT NADI_WIND NADI_PRES WELLINGTON_LAT WELLINGTON_LON WELLINGTON_WIND WELLINGTON_PRES DS824_LAT DS824_LON DS824_STAGE DS824_WIND DS824_PRES TD9636_LAT TD9636_LON TD9636_STAGE TD9636_WIND TD9636_PRES TD9635_LAT TD9635_LON TD9635_WIND TD9635_PRES TD9635_ROCI NEUMANN_LAT NEUMANN_LON NEUMANN_CLASS NEUMANN_WIND NEUMANN_PRES MLC_LAT MLC_LON MLC_CLASS MLC_WIND MLC_PRES USA_GUST BOM_GUST BOM_GUST_PER REUNION_GUST REUNION_GUST_PER USA_SEAHGT USA_SEARAD_NE USA_SEARAD_SE USA_SEARAD_SW USA_SEARAD_NW STORM_SPEED STORM_DIR
1899284N10325 1899 39 NA NA NOT_NAMED 1899-10-10 12:00:00 TS 10.0000 -35.0000 40 hurdat_atl main 1540 1540 O_____________ hurdat_atl AL071899 10.0000 -35.0000 TS 40 0 10 315
1899284N10325 1899 39 NA NA NOT_NAMED 1899-10-10 15:00:00 TS 10.3601 -35.3598 main 1568 1568 P_____________ AL071899 10.3601 -35.3598 TS 40 0 10 315
1899284N10325 1899 39 NA NA NOT_NAMED 1899-10-10 18:00:00 TS 10.7000 -35.7000 40 hurdat_atl main 1590 1590 O_____________ hurdat_atl AL071899 10.7000 -35.7000 TS 40 0 9 315
1899284N10325 1899 39 NA NA NOT_NAMED 1899-10-10 21:00:00 TS 11.0074 -36.0076 main 1613 1613 P_____________ AL071899 11.0074 -36.0076 TS 40 0 8 316
1899284N10325 1899 39 NA NA NOT_NAMED 1899-10-11 00:00:00 TS 11.3000 -36.3000 40 hurdat_atl main 1637 1637 O_____________ hurdat_atl AL071899 11.3000 -36.3000 TS 40 0 8 316
1899284N10325 1899 39 NA NA NOT_NAMED 1899-10-11 03:00:00 TS 11.6000 -36.6001 main 1662 1662 P_____________ AL071899 11.6000 -36.6001 TS 40 0 8 316
1899284N10325 1899 39 NA NA NOT_NAMED 1899-10-11 06:00:00 TS 11.9000 -36.9000 40 hurdat_atl main 1689 1689 O_____________ hurdat_atl AL071899 11.9000 -36.9000 TS 40 0 8 316
1899284N10325 1899 39 NA NA NOT_NAMED 1899-10-11 09:00:00 TS 12.1924 -37.1926 main 1716 1716 P_____________ AL071899 12.1924 -37.1926 TS 40 0 8 316
1899284N10325 1899 39 NA NA NOT_NAMED 1899-10-11 12:00:00 TS 12.5000 -37.5000 40 hurdat_atl main 1744 1744 O_____________ hurdat_atl AL071899 12.5000 -37.5000 TS 40 0 9 316
1899284N10325 1899 39 NA NA NOT_NAMED 1899-10-11 15:00:00 TS 12.8500 -37.8500 main 1769 1750 P_____________ AL071899 12.8500 -37.8500 TS 40 0 10 316
1899284N10325 1899 39 NA NA NOT_NAMED 1899-10-11 18:00:00 TS 13.2000 -38.2000 40 hurdat_atl main 1750 1742 O_____________ hurdat_atl AL071899 13.2000 -38.2000 TS 40 0 9 316
1899284N10325 1899 39 NA NA NOT_NAMED 1899-10-11 21:00:00 TS 13.5074 -38.5076 main 1742 1736 P_____________ AL071899 13.5074 -38.5076 TS 40 0 8 316
1899284N10325 1899 39 NA NA NOT_NAMED 1899-10-12 00:00:00 TS 13.8000 -38.8000 40 hurdat_atl main 1736 1731 O_____________ hurdat_atl AL071899 13.8000 -38.8000 TS 40 0 8 316
1899284N10325 1899 39 NA NA NOT_NAMED 1899-10-12 03:00:00 TS 14.1000 -39.1001 main 1731 1726 P_____________ AL071899 14.1000 -39.1001 TS 40 0 8 316
1899284N10325 1899 39 NA NA NOT_NAMED 1899-10-12 06:00:00 TS 14.4000 -39.4000 40 hurdat_atl main 1726 1716 O_____________ hurdat_atl AL071899 14.4000 -39.4000 TS 40 0 8 315
1899284N10325 1899 39 NA NA NOT_NAMED 1899-10-12 09:00:00 TS 14.6925 -39.7076 main 1724 1715 P_____________ AL071899 14.6925 -39.7076 TS 40 0 8 316
1899284N10325 1899 39 NA NA NOT_NAMED 1899-10-12 12:00:00 TS 15.0000 -40.0000 40 hurdat_atl main 1722 1722 O_____________ hurdat_atl AL071899 15.0000 -40.0000 TS 40 0 8 321
1899284N10325 1899 39 NA NA NOT_NAMED 1899-10-12 15:00:00 TS 15.3499 -40.2576 main 1722 1722 P_____________ AL071899 15.3499 -40.2576 TS 40 0 9 325
1899284N10325 1899 39 NA NA NOT_NAMED 1899-10-12 18:00:00 TS 15.7000 -40.5000 40 hurdat_atl main 1739 1739 O_____________ hurdat_atl AL071899 15.7000 -40.5000 TS 40 0 8 324
1899284N10325 1899 39 NA NA NOT_NAMED 1899-10-12 21:00:00 TS 16.0075 -40.7576 main 1742 1742 P_____________ AL071899 16.0075 -40.7576 TS 40 0 8 321
1899284N10325 1899 39 NA NA NOT_NAMED 1899-10-13 00:00:00 TS 16.3000 -41.0000 40 hurdat_atl main 1752 1752 O_____________ hurdat_atl AL071899 16.3000 -41.0000 TS 40 0 7 324
1899284N10325 1899 39 NA NA NOT_NAMED 1899-10-13 03:00:00 TS 16.6000 -41.2076 main 1764 1764 P_____________ AL071899 16.6000 -41.2076 TS 40 0 7 327
1899284N10325 1899 39 NA NA NOT_NAMED 1899-10-13 06:00:00 TS 16.9000 -41.4000 40 hurdat_atl main 1777 1777 O_____________ hurdat_atl AL071899 16.9000 -41.4000 TS 40 0 7 328
1899284N10325 1899 39 NA NA NOT_NAMED 1899-10-13 09:00:00 TS 17.1850 -41.5927 main 1790 1790 P_____________ AL071899 17.1850 -41.5927 TS 40 0 7 328
1899284N10325 1899 39 NA NA NOT_NAMED 1899-10-13 12:00:00 TS 17.5000 -41.8000 40 hurdat_atl main 1804 1804 O_____________ hurdat_atl AL071899 17.5000 -41.8000 TS 40 0 8 327
1899284N10325 1899 39 NA NA NOT_NAMED 1899-10-13 15:00:00 TS 17.8700 -42.0500 main 1823 1823 P_____________ AL071899 17.8700 -42.0500 TS 40 0 9 329
1899284N10325 1899 39 NA NA NOT_NAMED 1899-10-13 18:00:00 TS 18.3000 -42.3000 40 hurdat_atl main 1845 1845 O_____________ hurdat_atl AL071899 18.3000 -42.3000 TS 40 0 10 334
1899284N10325 1899 39 NA NA NOT_NAMED 1899-10-13 21:00:00 TS 18.7775 -42.5076 main 1876 1876 P_____________ AL071899 18.7775 -42.5076 TS 40 0 11 339
1899284N10325 1899 39 NA NA NOT_NAMED 1899-10-14 00:00:00 TS 19.3000 -42.7000 40 hurdat_atl main 1909 1909 O_____________ hurdat_atl AL071899 19.3000 -42.7000 TS 40 0 11 341
1899284N10325 1899 39 NA NA NOT_NAMED 1899-10-14 03:00:00 TS 19.8425 -42.9001 main 1943 1943 P_____________ AL071899 19.8425 -42.9001 TS 40 0 12 341
1899284N10325 1899 39 NA NA NOT_NAMED 1899-10-14 06:00:00 TS 20.4000 -43.1000 40 hurdat_atl main 1987 1987 O_____________ hurdat_atl AL071899 20.4000 -43.1000 TS 40 0 12 341
1899284N10325 1899 39 NA NA NOT_NAMED 1899-10-14 09:00:00 TS 20.9525 -43.2997 main 2033 2033 P_____________ AL071899 20.9525 -43.2997 TS 40 0 12 341
1899284N10325 1899 39 NA NA NOT_NAMED 1899-10-14 12:00:00 TS 21.5000 -43.5000 40 hurdat_atl main 2071 O_____________ hurdat_atl AL071899 21.5000 -43.5000 TS 40 0 12 341

IBTrACS Databaseについて

本データベースは、米国NOAAが公開する1842年以降の世界の熱帯低気圧のベストトラックデータアーカイブInternational Best Track Archive for Climate Stewardship (IBTrACS)を、ウェブで閲覧しやすい形式に変換したものです。

最終更新日:2021-10-25